createdAt,value
2022-11-03T00:01:42.371Z,100691.97
2022-11-03T00:06:46.513Z,100694.38
2022-11-03T00:11:53.194Z,100708.91
2022-11-03T00:17:01.418Z,100705.59
2022-11-03T00:22:04.852Z,100704.84
2022-11-03T00:27:09.201Z,100714.97
2022-11-03T00:32:19.098Z,100698.13
2022-11-03T00:37:21.177Z,100712.22
2022-11-03T00:42:23.096Z,100697.75
2022-11-03T00:47:24.862Z,100694.22
2022-11-03T00:52:26.717Z,100695.03
2022-11-03T00:57:28.620Z,100682.03
2022-11-03T01:02:30.761Z,100687.47
2022-11-03T01:07:32.799Z,100680.56
2022-11-03T01:12:40.104Z,100687.00
2022-11-03T01:17:42.068Z,100684.94
2022-11-03T01:22:43.932Z,100698.06
2022-11-03T01:27:45.926Z,100676.38
2022-11-03T01:32:48.786Z,100674.97
2022-11-03T01:37:53.407Z,100688.56
2022-11-03T01:43:44.642Z,100681.13
2022-11-03T01:49:02.883Z,100662.44
2022-11-03T01:54:40.577Z,100656.31
2022-11-03T02:00:34.334Z,100660.28
2022-11-03T02:05:57.977Z,100671.28
2022-11-03T02:11:20.376Z,100665.91
2022-11-03T02:16:27.037Z,100650.22
2022-11-03T02:21:46.389Z,100650.84
2022-11-03T02:26:48.922Z,100653.16
2022-11-03T02:32:12.230Z,100643.25
2022-11-03T02:37:20.461Z,100632.97
2022-11-03T02:42:25.049Z,100620.63
2022-11-03T02:47:29.617Z,100618.94
2022-11-03T02:52:43.147Z,100618.03
2022-11-03T02:57:59.709Z,100633.25
2022-11-03T03:03:17.613Z,100627.44
2022-11-03T03:08:21.529Z,100611.50
2022-11-03T03:13:24.824Z,100619.34
2022-11-03T03:18:33.356Z,100604.09
2022-11-03T03:23:41.359Z,100607.50
2022-11-03T03:28:53.671Z,100597.50
2022-11-03T03:34:04.447Z,100595.09
2022-11-03T03:39:11.160Z,100594.97
2022-11-03T03:44:13.971Z,100588.75
2022-11-03T03:49:15.842Z,100591.97
2022-11-03T03:54:17.805Z,100585.34
2022-11-03T03:59:19.593Z,100582.88
2022-11-03T04:04:21.385Z,100601.97
2022-11-03T04:09:23.180Z,100601.78
2022-11-03T04:14:54.400Z,100593.41
2022-11-03T04:20:14.772Z,100585.03
2022-11-03T04:25:16.720Z,100577.75
2022-11-03T04:30:20.932Z,100568.88
2022-11-03T04:35:25.122Z,100553.88
2022-11-03T04:40:27.649Z,100548.09
2022-11-03T04:45:31.498Z,100537.41
2022-11-03T04:50:33.261Z,100524.47
2022-11-03T04:55:35.237Z,100525.72
2022-11-03T05:00:39.977Z,100528.06
2022-11-03T05:05:41.800Z,100528.84
2022-11-03T05:10:43.712Z,100536.69
2022-11-03T05:15:46.021Z,100520.84
2022-11-03T05:20:55.005Z,100516.59
2022-11-03T05:25:57.867Z,100531.97
2022-11-03T05:30:59.632Z,100525.41
2022-11-03T05:36:06.074Z,100522.09
2022-11-03T05:41:26.167Z,100519.66
2022-11-03T05:46:33.348Z,100512.13
2022-11-03T05:51:39.994Z,100522.47
2022-11-03T05:56:41.673Z,100505.59
2022-11-03T06:01:43.604Z,100506.53
2022-11-03T06:07:09.901Z,100510.91
2022-11-03T06:12:18.127Z,100527.97
2022-11-03T06:17:26.103Z,100530.94
2022-11-03T06:22:36.201Z,100526.94
2022-11-03T06:27:38.912Z,100528.16
2022-11-03T06:32:40.774Z,100545.34
2022-11-03T06:37:43.152Z,100543.13
2022-11-03T06:42:44.872Z,100530.81
2022-11-03T06:47:47.340Z,100529.44
2022-11-03T06:52:50.154Z,100539.84
2022-11-03T06:58:14.723Z,100535.78
2022-11-03T07:03:25.028Z,100527.72
2022-11-03T07:08:36.326Z,100527.28
2022-11-03T07:13:41.312Z,100525.91
2022-11-03T07:18:44.191Z,100506.72
2022-11-03T07:23:47.205Z,100502.84
2022-11-03T07:28:49.392Z,100505.69
2022-11-03T07:33:58.531Z,100502.22
2022-11-03T07:39:01.539Z,100507.59
2022-11-03T07:44:03.848Z,100491.91
2022-11-03T07:49:09.937Z,100486.78
2022-11-03T07:54:24.816Z,100474.81
2022-11-03T07:59:39.213Z,100470.16
2022-11-03T08:04:40.991Z,100474.88
2022-11-03T08:09:43.113Z,100452.44
2022-11-03T08:14:44.894Z,100457.91
2022-11-03T08:19:46.745Z,100433.94
2022-11-03T08:24:51.011Z,100426.09
2022-11-03T08:29:56.336Z,100409.44
2022-11-03T08:35:04.153Z,100407.09
2022-11-03T08:40:10.948Z,100391.25
2022-11-03T08:45:22.463Z,100377.97
2022-11-03T08:50:27.819Z,100383.25
2022-11-03T08:55:35.412Z,100364.09
2022-11-03T09:00:50.657Z,100356.63
2022-11-03T09:06:13.185Z,100339.94
2022-11-03T09:12:31.311Z,100342.63
2022-11-03T09:23:25.090Z,100310.81
2022-11-03T09:28:37.487Z,100305.00
2022-11-03T09:34:03.852Z,100305.13
2022-11-03T09:39:06.936Z,100281.56
2022-11-03T10:31:26.244Z,100204.06
2022-11-03T10:53:42.152Z,100156.63
2022-11-03T13:33:15.102Z,99859.94
2022-11-03T13:38:22.016Z,99843.19
2022-11-03T14:12:40.031Z,99824.59
2022-11-03T14:23:52.162Z,99820.56
2022-11-03T20:22:28.154Z,99448.81
2022-11-03T20:27:57.965Z,99437.91
2022-11-03T20:33:03.160Z,99422.78
2022-11-03T20:38:26.398Z,99419.41
2022-11-03T20:43:41.788Z,99419.41
2022-11-03T20:48:49.421Z,99391.72
2022-11-03T20:53:51.825Z,99376.63
2022-11-03T21:10:34.754Z,99385.00
2022-11-03T21:16:23.533Z,99374.09
2022-11-03T21:21:36.251Z,99383.34
2022-11-03T21:32:32.094Z,99345.56
2022-11-03T21:38:04.202Z,99337.13
2022-11-03T21:49:20.534Z,99324.50
2022-11-03T22:00:51.283Z,99314.47
2022-11-03T22:06:34.360Z,99293.50
2022-11-03T22:23:37.403Z,99283.44
2022-11-03T22:29:26.828Z,99292.66
2022-11-03T22:59:42.538Z,99172.72
2022-11-03T23:10:53.497Z,99173.56
2022-11-03T23:16:41.393Z,99158.47
2022-11-03T23:22:14.354Z,99164.34
2022-11-03T23:27:23.545Z,99143.34
2022-11-03T23:33:05.243Z,99145.84
2022-11-03T23:43:41.259Z,99106.38
